Time;durP1;ratioP1;P1;durP2;ratioP2;P2;SDS_P1;SDS_P2;PMS_P1;PMS_P2;Temp;Humidity;BMP_temperature;BMP_pressure;BME280_temperature;BME280_humidity;BME280_pressure;Samples;Min_cycle;Max_cycle;Signal;HPM_P1;HPM_P2
2021/08/17 00:01:30;;;;;;;;;;;;;;;24.89;30.58;94470.38;2162325;47;19958;-60
2021/08/17 00:03:32;;;;;;;;;;;;;;;24.88;30.31;94473.28;2162066;47;20503;-62
2021/08/17 00:05:35;;;;;;;;;;;;;;;24.86;30.58;94464.69;2161406;54;20030;-61
2021/08/17 00:07:37;;;;;;;;;;;;;;;24.87;30.62;94461.78;2161805;54;19958;-61
2021/08/17 00:09:38;;;;;;;;;;;;;;;24.88;31.02;94462.56;2162242;51;19954;-62
2021/08/17 00:11:40;;;;;;;;;;;;;;;24.91;30.66;94468.25;2162429;47;19994;-60
2021/08/17 00:13:43;;;;;;;;;;;;;;;24.91;30.18;94465.56;2162158;39;20434;-61
2021/08/17 00:15:45;;;;;;;;;;;;;;;24.90;30.20;94466.59;2161657;39;20200;-60
2021/08/17 00:17:46;;;;;;;;;;;;;;;24.87;29.65;94469.81;2162340;39;20366;-61
2021/08/17 00:19:49;;;;;;;;;;;;;;;24.89;29.92;94472.25;2161385;51;19953;-62
2021/08/17 00:21:50;;;;;;;;;;;;;;;24.90;29.82;94471.97;2161886;54;20053;-60
2021/08/17 00:23:52;;;;;;;;;;;;;;;24.90;29.65;94476.53;2161633;54;19947;-60
2021/08/17 00:25:54;;;;;;;;;;;;;;;24.91;29.79;94470.91;2162894;31;20431;-59
2021/08/17 00:27:55;;;;;;;;;;;;;;;24.89;29.29;94467.69;2161610;47;19954;-61
2021/08/17 00:29:57;;;;;;;;;;;;;;;24.91;29.67;94467.44;2161436;54;19950;-61
2021/08/17 00:31:58;;;;;;;;;;;;;;;24.96;29.46;94458.63;2162442;47;20002;-60
2021/08/17 00:34:00;;;;;;;;;;;;;;;24.99;29.03;94461.59;2162208;54;20455;-60
2021/08/17 00:36:02;;;;;;;;;;;;;;;25.00;29.09;94465.09;2161300;54;19947;-61
2021/08/17 00:38:04;;;;;;;;;;;;;;;24.98;29.66;94456.50;2162143;54;19990;-62
2021/08/17 00:40:06;;;;;;;;;;;;;;;24.90;29.76;94463.94;2162105;54;20002;-60
2021/08/17 00:42:08;;;;;;;;;;;;;;;24.81;29.01;94461.97;2162143;54;19990;-61
2021/08/17 00:44:16;;;;;;;;;;;;;;;24.79;29.56;94454.19;2162084;54;19994;-61
2021/08/17 00:46:18;;;;;;;;;;;;;;;24.84;29.71;94456.91;2162338;47;20419;-63
2021/08/17 00:48:20;;;;;;;;;;;;;;;24.87;29.48;94461.78;2162207;46;19962;-61
2021/08/17 00:50:24;;;;;;;;;;;;;;;24.86;29.63;94462.81;2160815;54;20002;-59
2021/08/17 00:52:26;;;;;;;;;;;;;;;24.86;29.43;94462.00;2161847;54;20022;-61
2021/08/17 00:54:28;;;;;;;;;;;;;;;24.85;29.34;94455.84;2161348;54;19958;-62
2021/08/17 00:56:29;;;;;;;;;;;;;;;24.86;29.39;94460.13;2161817;54;19954;-61
2021/08/17 00:58:31;;;;;;;;;;;;;;;24.84;29.88;94461.47;2162273;39;20347;-61
2021/08/17 01:00:33;;;;;;;;;;;;;;;24.83;29.43;94455.31;2161868;46;19998;-61
2021/08/17 01:02:35;;;;;;;;;;;;;;;24.84;29.41;94458.78;2162726;46;20406;-61
2021/08/17 01:04:38;;;;;;;;;;;;;;;24.85;29.43;94457.72;2162585;54;19967;-59
2021/08/17 01:06:40;;;;;;;;;;;;;;;24.87;29.49;94461.78;2162622;39;20427;-59
2021/08/17 01:08:41;;;;;;;;;;;;;;;24.82;29.91;94463.59;2162759;54;20635;-59
2021/08/17 01:10:44;;;;;;;;;;;;;;;24.82;29.83;94456.34;2163117;39;20226;-60
2021/08/17 01:12:45;;;;;;;;;;;;;;;24.83;30.06;94460.66;2162889;47;19984;-62
2021/08/17 01:14:47;;;;;;;;;;;;;;;24.85;29.69;94461.22;2162984;54;19994;-60
2021/08/17 01:16:49;;;;;;;;;;;;;;;24.81;29.75;94461.97;2161623;54;19994;-60
2021/08/17 01:18:51;;;;;;;;;;;;;;;24.77;30.01;94459.00;2162709;54;19946;-59
2021/08/17 01:20:56;;;;;;;;;;;;;;;24.76;30.08;94465.41;2161914;47;20008;-61
2021/08/17 01:22:57;;;;;;;;;;;;;;;24.74;29.97;94451.47;2163386;39;20387;-61
2021/08/17 01:24:59;;;;;;;;;;;;;;;24.68;30.68;94457.84;2162288;54;19991;-62
2021/08/17 01:27:01;;;;;;;;;;;;;;;24.57;30.78;94456.13;2162900;54;19947;-60
2021/08/17 01:29:02;;;;;;;;;;;;;;;24.37;31.39;94457.50;2161593;39;20464;-61
2021/08/17 01:31:05;;;;;;;;;;;;;;;24.18;31.22;94464.19;2161803;47;19954;-60
2021/08/17 01:33:07;;;;;;;;;;;;;;;24.04;32.14;94463.78;2154990;54;19946;-59
2021/08/17 01:35:09;;;;;;;;;;;;;;;23.60;32.37;94458.38;2161228;54;19947;-60
2021/08/17 01:37:10;;;;;;;;;;;;;;;23.43;33.19;94464.53;2161790;47;19977;-61
2021/08/17 01:39:12;;;;;;;;;;;;;;;23.49;32.69;94462.75;2162428;54;20030;-59
2021/08/17 01:41:14;;;;;;;;;;;;;;;23.57;32.69;94473.00;2162632;47;20034;-60
2021/08/17 01:43:15;;;;;;;;;;;;;;;23.63;32.97;94469.38;2162245;54;19971;-60
2021/08/17 01:45:18;;;;;;;;;;;;;;;23.70;32.34;94469.19;2161777;46;20083;-61
2021/08/17 01:47:20;;;;;;;;;;;;;;;23.76;32.33;94464.75;2162194;47;20499;-60
2021/08/17 01:49:21;;;;;;;;;;;;;;;23.77;32.27;94471.72;2162087;54;19954;-60
2021/08/17 01:51:23;;;;;;;;;;;;;;;23.82;32.44;94471.78;2161971;54;19980;-60
2021/08/17 01:53:28;;;;;;;;;;;;;;;23.85;32.66;94469.41;2161971;54;19951;-60
2021/08/17 01:55:30;;;;;;;;;;;;;;;23.85;32.19;94466.75;2162089;54;19951;-61
2021/08/17 01:57:31;;;;;;;;;;;;;;;23.83;32.47;94468.88;2162344;54;19954;-60
2021/08/17 01:59:33;;;;;;;;;;;;;;;23.79;32.38;94464.25;2162394;47;20066;-61
2021/08/17 02:01:35;;;;;;;;;;;;;;;23.77;32.78;94469.03;2162394;47;19950;-60
2021/08/17 02:03:37;;;;;;;;;;;;;;;23.58;32.91;94461.28;2162476;54;19947;-61
2021/08/17 02:05:38;;;;;;;;;;;;;;;23.23;33.80;94466.88;2161584;47;19959;-58
2021/08/17 02:07:40;;;;;;;;;;;;;;;22.89;33.95;94465.00;2162586;54;19998;-60
2021/08/17 02:09:42;;;;;;;;;;;;;;;22.85;34.26;94458.50;2162765;54;19951;-63
2021/08/17 02:11:44;;;;;;;;;;;;;;;22.80;34.44;94458.44;2162587;54;19992;-60
2021/08/17 02:13:45;;;;;;;;;;;;;;;22.90;33.67;94447.91;2162832;46;20003;-60
2021/08/17 02:15:47;;;;;;;;;;;;;;;23.01;33.67;94456.13;2162266;54;20001;-61
2021/08/17 02:17:49;;;;;;;;;;;;;;;23.13;34.09;94456.88;2162159;54;19977;-60
2021/08/17 02:19:51;;;;;;;;;;;;;;;23.20;33.92;94452.16;2161893;54;19947;-60
2021/08/17 02:21:53;;;;;;;;;;;;;;;23.26;33.70;94456.53;2162575;47;20455;-60
2021/08/17 02:23:54;;;;;;;;;;;;;;;23.34;33.51;94458.00;2162475;54;19997;-61
2021/08/17 02:25:56;;;;;;;;;;;;;;;23.42;33.52;94462.09;2162325;54;19986;-60
2021/08/17 02:27:58;;;;;;;;;;;;;;;23.44;32.55;94462.66;2162611;54;19951;-61
2021/08/17 02:30:00;;;;;;;;;;;;;;;23.44;32.84;94465.34;2161795;54;19993;-59
2021/08/17 02:32:02;;;;;;;;;;;;;;;23.47;32.38;94459.53;2161826;54;19950;-60
2021/08/17 02:34:03;;;;;;;;;;;;;;;23.50;32.09;94459.00;2162294;54;19953;-64
2021/08/17 02:36:05;;;;;;;;;;;;;;;23.50;32.23;94459.81;2161722;54;20464;-60
2021/08/17 02:38:07;;;;;;;;;;;;;;;23.47;32.83;94462.19;2163175;31;20442;-64
2021/08/17 02:40:09;;;;;;;;;;;;;;;23.33;32.78;94461.72;2161342;54;20030;-63
2021/08/17 02:42:11;;;;;;;;;;;;;;;23.25;32.63;94464.78;2163175;31;20406;-63
2021/08/17 02:44:12;;;;;;;;;;;;;;;23.26;32.89;94464.53;2162526;46;20095;-59
2021/08/17 02:46:14;;;;;;;;;;;;;;;23.15;32.60;94457.44;2162289;47;20022;-61
2021/08/17 02:48:15;;;;;;;;;;;;;;;23.06;32.64;94456.22;2161653;54;19947;-60
2021/08/17 02:50:17;;;;;;;;;;;;;;;22.96;32.94;94453.34;2161435;54;20118;-60
2021/08/17 02:52:19;;;;;;;;;;;;;;;22.65;33.23;94471.50;2161734;54;19953;-59
2021/08/17 02:54:21;;;;;;;;;;;;;;;22.50;34.15;94461.38;2162524;47;20058;-60
2021/08/17 02:56:22;;;;;;;;;;;;;;;22.58;33.51;94462.84;2162657;54;19946;-61
2021/08/17 02:58:24;;;;;;;;;;;;;;;22.60;33.45;94463.41;2162460;54;19946;-58
2021/08/17 03:00:25;;;;;;;;;;;;;;;22.38;34.02;94460.59;2161923;54;20018;-58
2021/08/17 03:02:27;;;;;;;;;;;;;;;22.44;34.11;94460.47;2162476;54;19954;-65
2021/08/17 03:04:29;;;;;;;;;;;;;;;22.57;33.80;94461.22;2162285;54;19946;-61
2021/08/17 03:06:31;;;;;;;;;;;;;;;22.49;33.78;94454.41;2162480;54;19950;-61
2021/08/17 03:08:32;;;;;;;;;;;;;;;22.00;34.69;94454.75;2162901;54;19998;-60
2021/08/17 03:10:35;;;;;;;;;;;;;;;21.82;34.94;94466.41;2162806;47;19946;-60
2021/08/17 03:12:36;;;;;;;;;;;;;;;21.88;34.61;94459.34;2162342;54;19951;-62
2021/08/17 03:14:38;;;;;;;;;;;;;;;21.65;36.04;94468.16;2162180;47;20665;-61
2021/08/17 03:16:40;;;;;;;;;;;;;;;21.40;37.11;94458.53;2162629;54;20035;-61
2021/08/17 03:18:42;;;;;;;;;;;;;;;21.49;37.66;94461.69;2162527;54;19946;-61
2021/08/17 03:20:44;;;;;;;;;;;;;;;21.62;36.63;94465.97;2161840;54;19990;-62
2021/08/17 03:22:45;;;;;;;;;;;;;;;21.79;36.94;94464.22;2162294;54;19951;-61
2021/08/17 03:24:47;;;;;;;;;;;;;;;21.87;36.99;94468.38;2161830;39;20220;-60
2021/08/17 03:26:48;;;;;;;;;;;;;;;21.82;36.75;94463.75;2162690;47;20443;-60
2021/08/17 03:28:50;;;;;;;;;;;;;;;21.77;37.13;94470.81;2162523;54;19990;-60
2021/08/17 03:30:52;;;;;;;;;;;;;;;21.85;37.14;94465.13;2161722;54;19998;-60
2021/08/17 03:32:54;;;;;;;;;;;;;;;21.96;36.49;94458.97;2161987;54;19946;-61
2021/08/17 03:34:55;;;;;;;;;;;;;;;22.13;36.25;94461.69;2161360;47;20009;-61
2021/08/17 03:36:57;;;;;;;;;;;;;;;22.28;36.35;94455.88;2162321;54;19954;-63
2021/08/17 03:38:59;;;;;;;;;;;;;;;22.37;36.33;94454.47;2162322;54;20427;-60
2021/08/17 03:41:01;;;;;;;;;;;;;;;22.43;36.27;94455.34;2162294;54;19967;-61
2021/08/17 03:43:02;;;;;;;;;;;;;;;22.46;36.33;94458.38;2162360;54;19950;-61
2021/08/17 03:45:05;;;;;;;;;;;;;;;22.27;36.63;94456.94;2162501;39;20364;-60
2021/08/17 03:47:07;;;;;;;;;;;;;;;22.27;36.71;94459.59;2162583;47;20789;-61
2021/08/17 03:49:08;;;;;;;;;;;;;;;22.20;35.83;94456.22;2162193;54;20514;-60
2021/08/17 03:51:10;;;;;;;;;;;;;;;22.19;36.22;94459.94;2161840;47;20471;-61
2021/08/17 03:53:12;;;;;;;;;;;;;;;22.23;36.17;94461.13;2162279;51;19953;-60
2021/08/17 03:55:13;;;;;;;;;;;;;;;22.24;36.36;94468.06;2162215;54;20427;-61
2021/08/17 03:57:15;;;;;;;;;;;;;;;22.32;36.13;94470.38;2162321;31;20381;-63
2021/08/17 03:59:17;;;;;;;;;;;;;;;22.45;35.58;94464.72;2162607;39;20612;-61
2021/08/17 04:01:19;;;;;;;;;;;;;;;22.56;35.46;94463.06;2162015;47;19991;-61
2021/08/17 04:03:21;;;;;;;;;;;;;;;22.62;35.46;94463.97;2162167;54;19954;-60
2021/08/17 04:05:23;;;;;;;;;;;;;;;22.73;35.45;94470.31;2161817;47;19950;-62
2021/08/17 04:07:25;;;;;;;;;;;;;;;22.69;35.35;94460.13;2162185;39;20237;-59
2021/08/17 04:09:26;;;;;;;;;;;;;;;22.61;35.36;94459.69;2162232;47;20714;-59
2021/08/17 04:11:28;;;;;;;;;;;;;;;22.67;34.91;94459.53;2162449;47;20501;-61
2021/08/17 04:13:30;;;;;;;;;;;;;;;22.70;34.72;94461.72;2162570;54;19950;-61
2021/08/17 04:15:31;;;;;;;;;;;;;;;22.80;34.71;94458.44;2162129;54;20466;-63
2021/08/17 04:17:33;;;;;;;;;;;;;;;22.87;34.33;94461.75;2161804;47;19953;-61
2021/08/17 04:19:38;;;;;;;;;;;;;;;22.90;34.25;94458.59;2161453;54;19950;-61
2021/08/17 04:21:40;;;;;;;;;;;;;;;23.01;34.05;94458.78;2162623;54;19994;-62
2021/08/17 04:23:42;;;;;;;;;;;;;;;23.06;33.86;94453.56;2161940;47;20054;-60
2021/08/17 04:25:43;;;;;;;;;;;;;;;23.13;33.57;94456.88;2162654;39;20449;-61
2021/08/17 04:27:45;;;;;;;;;;;;;;;23.12;33.98;94457.09;2162406;54;19951;-63
2021/08/17 04:29:47;;;;;;;;;;;;;;;23.10;33.83;94452.81;2161821;39;20379;-62
2021/08/17 04:31:48;;;;;;;;;;;;;;;23.15;33.50;94453.97;2161361;54;19954;-60
2021/08/17 04:33:50;;;;;;;;;;;;;;;22.90;34.00;94458.59;2161562;47;20007;-60
2021/08/17 04:35:52;;;;;;;;;;;;;;;22.89;34.49;94458.84;2161714;47;19990;-61
2021/08/17 04:37:53;;;;;;;;;;;;;;;22.90;34.29;94461.25;2162482;39;20337;-60
2021/08/17 04:39:56;;;;;;;;;;;;;;;22.93;33.80;94464.50;2162836;54;20062;-60
2021/08/17 04:41:57;;;;;;;;;;;;;;;22.86;34.27;94465.47;2162390;54;20447;-61
2021/08/17 04:43:59;;;;;;;;;;;;;;;22.23;35.61;94463.78;2162807;54;19951;-60
2021/08/17 04:46:01;;;;;;;;;;;;;;;21.25;37.58;94467.00;2162692;54;19995;-62
2021/08/17 04:48:03;;;;;;;;;;;;;;;21.33;37.67;94468.50;2162852;54;19950;-60
2021/08/17 04:50:05;;;;;;;;;;;;;;;21.60;37.31;94471.53;2162425;39;20214;-59
2021/08/17 04:52:06;;;;;;;;;;;;;;;21.89;36.74;94468.94;2162610;54;20047;-61
2021/08/17 04:54:08;;;;;;;;;;;;;;;22.16;36.44;94468.44;2162726;54;19951;-60
2021/08/17 04:56:10;;;;;;;;;;;;;;;22.45;35.39;94463.94;2162719;47;20009;-62
2021/08/17 04:58:12;;;;;;;;;;;;;;;22.60;35.17;94466.06;2163119;54;19962;-61
2021/08/17 05:00:14;;;;;;;;;;;;;;;22.77;34.93;94468.78;2162553;46;20062;-61
2021/08/17 05:02:15;;;;;;;;;;;;;;;22.84;35.26;94467.59;2162920;54;19946;-64
2021/08/17 05:04:17;;;;;;;;;;;;;;;22.79;35.26;94456.81;2162494;54;19954;-59
2021/08/17 05:06:19;;;;;;;;;;;;;;;22.68;35.57;94465.69;2162092;54;19954;-60
2021/08/17 05:08:20;;;;;;;;;;;;;;;22.43;36.77;94463.34;2162443;47;20460;-63
2021/08/17 05:10:22;;;;;;;;;;;;;;;22.14;37.71;94467.84;2162697;54;20021;-64
2021/08/17 05:12:24;;;;;;;;;;;;;;;22.25;40.65;94473.16;2163164;54;19947;-63
2021/08/17 05:14:25;;;;;;;;;;;;;;;22.12;37.56;94472.63;2162617;54;19963;-61
2021/08/17 05:16:27;;;;;;;;;;;;;;;22.07;38.08;94479.47;2162674;54;19971;-64
2021/08/17 05:18:32;;;;;;;;;;;;;;;21.94;37.41;94466.41;2162740;54;19946;-64
2021/08/17 05:20:34;;;;;;;;;;;;;;;22.06;39.66;94469.03;2161260;54;20543;-65
2021/08/17 05:22:36;;;;;;;;;;;;;;;22.29;38.27;94470.84;2162196;47;20350;-65
2021/08/17 05:24:37;;;;;;;;;;;;;;;22.24;39.28;94468.06;2162611;54;19946;-64
2021/08/17 05:26:39;;;;;;;;;;;;;;;22.46;39.89;94476.25;2162335;39;20286;-64
2021/08/17 05:28:41;;;;;;;;;;;;;;;22.59;37.35;94475.16;2161491;54;19947;-65
2021/08/17 05:30:42;;;;;;;;;;;;;;;22.09;39.13;94485.38;2162626;54;20063;-66
2021/08/17 05:32:44;;;;;;;;;;;;;;;22.35;39.43;94485.09;2162262;54;19954;-68
2021/08/17 05:34:46;;;;;;;;;;;;;;;22.46;39.00;94481.59;2160975;54;19947;-69
2021/08/17 05:36:47;;;;;;;;;;;;;;;22.56;36.81;94473.75;2162655;47;20460;-66
2021/08/17 05:38:49;;;;;;;;;;;;;;;22.70;37.04;94482.28;2162229;54;19959;-68
2021/08/17 05:40:51;;;;;;;;;;;;;;;22.90;36.52;94476.47;2162003;46;19970;-70
2021/08/17 05:42:52;;;;;;;;;;;;;;;22.91;36.26;94475.44;2162216;54;20026;-68
2021/08/17 05:44:54;;;;;;;;;;;;;;;22.86;36.69;94476.16;2162927;39;20403;-69
2021/08/17 05:46:56;;;;;;;;;;;;;;;22.88;36.34;94479.38;2161587;46;19986;-69
2021/08/17 05:48:57;;;;;;;;;;;;;;;22.85;36.68;94482.56;2162560;54;20067;-67
2021/08/17 05:50:59;;;;;;;;;;;;;;;22.82;36.53;94491.06;2162087;54;19955;-69
2021/08/17 05:53:00;;;;;;;;;;;;;;;22.88;36.34;94490.06;2162532;54;20310;-68
2021/08/17 05:55:03;;;;;;;;;;;;;;;22.91;35.80;94480.78;2162463;47;20407;-66
2021/08/17 05:57:04;;;;;;;;;;;;;;;22.98;36.32;94483.31;2162508;54;19951;-67
2021/08/17 05:59:06;;;;;;;;;;;;;;;23.07;35.82;94487.22;2162751;46;20010;-66
2021/08/17 06:01:08;;;;;;;;;;;;;;;23.10;35.64;94476.88;2162300;47;19962;-68
2021/08/17 06:03:23;;;;;;;;;;;;;;;23.23;35.38;94470.38;2162196;47;19954;-68
2021/08/17 06:05:26;;;;;;;;;;;;;;;23.47;35.50;94471.00;2161757;39;20430;-66
2021/08/17 06:07:27;;;;;;;;;;;;;;;23.80;34.73;94476.59;2162281;54;19950;-68
2021/08/17 06:09:29;;;;;;;;;;;;;;;24.15;34.02;94478.09;2162280;47;19998;-70
2021/08/17 06:11:31;;;;;;;;;;;;;;;24.36;33.74;94476.47;2163026;54;19946;-69
2021/08/17 06:13:32;;;;;;;;;;;;;;;24.21;33.50;94474.44;2162797;47;19951;-69
2021/08/17 06:15:34;;;;;;;;;;;;;;;24.00;32.99;94479.50;2162591;47;19947;-65
2021/08/17 06:17:36;;;;;;;;;;;;;;;23.88;33.77;94471.63;2162964;47;20518;-65
2021/08/17 06:19:37;;;;;;;;;;;;;;;24.00;33.85;94470.69;2162079;47;19955;-68
2021/08/17 06:21:39;;;;;;;;;;;;;;;24.10;33.43;94474.28;2163182;54;19961;-66
2021/08/17 06:23:41;;;;;;;;;;;;;;;24.29;33.08;94464.09;2161738;54;19950;-65
2021/08/17 06:25:43;;;;;;;;;;;;;;;24.53;32.71;94469.19;2163100;39;20526;-58
2021/08/17 06:27:44;;;;;;;;;;;;;;;24.79;32.66;94466.78;2162402;47;19996;-61
2021/08/17 06:29:46;;;;;;;;;;;;;;;24.98;32.64;94461.88;2162041;54;20004;-61
2021/08/17 06:31:49;;;;;;;;;;;;;;;25.02;32.74;94465.66;2162076;54;19950;-59
2021/08/17 06:33:51;;;;;;;;;;;;;;;25.00;32.70;94460.53;2161559;54;19950;-63
2021/08/17 06:35:52;;;;;;;;;;;;;;;24.70;33.10;94461.06;2161475;31;20574;-64
2021/08/17 06:37:54;;;;;;;;;;;;;;;24.45;33.36;94457.03;2162098;54;19946;-68
2021/08/17 06:39:57;;;;;;;;;;;;;;;24.36;34.16;94461.22;2162010;47;20038;-62
2021/08/17 06:41:58;;;;;;;;;;;;;;;24.40;33.81;94458.84;2163000;31;20432;-64
2021/08/17 06:44:00;;;;;;;;;;;;;;;24.28;34.37;94457.09;2161793;54;20593;-64
2021/08/17 06:46:02;;;;;;;;;;;;;;;24.41;34.10;94460.47;2162093;47;19955;-65
2021/08/17 06:48:04;;;;;;;;;;;;;;;24.56;34.30;94449.13;2162134;39;20443;-65
2021/08/17 06:50:16;;;;;;;;;;;;;;;24.82;33.86;94450.97;2161823;39;20033;-66
2021/08/17 06:52:18;;;;;;;;;;;;;;;24.96;33.76;94443.34;2161941;54;19950;-67
2021/08/17 06:54:19;;;;;;;;;;;;;;;25.01;33.80;94448.75;2161512;52;20003;-65
2021/08/17 06:56:21;;;;;;;;;;;;;;;25.19;33.77;94444.06;2162483;54;20038;-67
2021/08/17 06:58:23;;;;;;;;;;;;;;;25.38;33.30;94450.66;2161985;54;19947;-65
2021/08/17 07:00:24;;;;;;;;;;;;;;;25.56;33.27;94438.72;2160456;54;19993;-64
2021/08/17 07:02:26;;;;;;;;;;;;;;;25.63;33.06;94439.31;2162757;54;19958;-70
2021/08/17 07:04:34;;;;;;;;;;;;;;;25.68;33.38;94443.88;2161923;54;20936;-65
2021/08/17 07:06:36;;;;;;;;;;;;;;;25.74;32.96;94440.16;2161619;54;19946;-66
2021/08/17 07:08:41;;;;;;;;;;;;;;;25.75;32.83;94444.47;2161698;47;20692;-68
2021/08/17 07:10:43;;;;;;;;;;;;;;;25.67;32.65;94437.72;2160974;47;19955;-68
2021/08/17 07:12:57;;;;;;;;;;;;;;;25.93;32.68;94445.94;2161741;54;19947;-74
2021/08/17 07:14:58;;;;;;;;;;;;;;;26.15;32.82;94443.06;2161818;54;20099;-78
2021/08/17 07:17:00;;;;;;;;;;;;;;;26.40;32.40;94449.63;2159634;39;20446;-74
2021/08/17 07:19:02;;;;;;;;;;;;;;;26.58;31.96;94448.34;2162404;47;19953;-78
2021/08/17 07:21:04;;;;;;;;;;;;;;;26.72;31.60;94446.78;2161779;47;20050;-78
2021/08/17 07:23:06;;;;;;;;;;;;;;;26.66;31.86;94442.44;2162397;47;19947;-74
2021/08/17 07:25:08;;;;;;;;;;;;;;;26.77;31.89;94441.38;2163049;54;20411;-78
2021/08/17 07:27:10;;;;;;;;;;;;;;;26.82;32.04;94433.31;2163147;54;19970;-79
2021/08/17 07:29:12;;;;;;;;;;;;;;;26.68;31.76;94437.63;2163088;54;19946;-78
2021/08/17 07:31:13;;;;;;;;;;;;;;;26.62;32.02;94438.69;2163404;54;20069;-78
2021/08/17 07:33:15;;;;;;;;;;;;;;;26.73;31.54;94435.72;2163055;54;20880;-74
2021/08/17 07:35:17;;;;;;;;;;;;;;;26.95;31.61;94435.50;2161420;54;19954;-77
2021/08/17 07:37:19;;;;;;;;;;;;;;;26.89;31.70;94439.25;2162695;47;19950;-83
2021/08/17 07:39:21;;;;;;;;;;;;;;;26.57;31.78;94449.44;2162123;54;21307;-75
2021/08/17 07:41:22;;;;;;;;;;;;;;;26.64;32.07;94444.59;2162328;54;19990;-82
2021/08/17 07:43:24;;;;;;;;;;;;;;;26.52;32.11;94442.09;2163314;54;19943;-78
2021/08/17 07:45:26;;;;;;;;;;;;;;;26.70;31.92;94444.34;2163047;49;20013;-79
2021/08/17 07:47:47;;;;;;;;;;;;;;;26.99;31.66;94441.13;2164056;54;20066;-77
2021/08/17 07:49:49;;;;;;;;;;;;;;;26.85;32.00;94446.25;2163135;47;19974;-79
2021/08/17 07:51:51;;;;;;;;;;;;;;;26.91;31.98;94447.88;2163448;54;19994;-82
2021/08/17 07:53:52;;;;;;;;;;;;;;;27.17;31.07;94445.19;2163288;47;20066;-81
2021/08/17 07:55:54;;;;;;;;;;;;;;;27.35;31.33;94443.84;2164067;46;20447;-79
2021/08/17 07:57:55;;;;;;;;;;;;;;;27.54;30.84;94436.03;2163875;54;19964;-79
2021/08/17 07:59:57;;;;;;;;;;;;;;;27.49;30.69;94439.56;2163179;39;20336;-76
2021/08/17 08:02:03;;;;;;;;;;;;;;;27.28;30.82;94428.00;2162804;47;19997;-78
2021/08/17 08:04:05;;;;;;;;;;;;;;;27.20;30.99;94425.03;2163499;51;19952;-81
2021/08/17 08:06:07;;;;;;;;;;;;;;;27.16;31.06;94428.22;2164327;31;20458;-79
2021/08/17 08:08:09;;;;;;;;;;;;;;;27.08;31.57;94427.97;2164322;54;19955;-83
2021/08/17 08:10:10;;;;;;;;;;;;;;;27.16;31.10;94430.13;2163653;47;19950;-81
2021/08/17 08:12:13;;;;;;;;;;;;;;;27.22;30.82;94428.28;2164210;46;19987;-77
2021/08/17 08:14:15;;;;;;;;;;;;;;;27.32;31.11;94426.38;2165636;54;19939;-83
2021/08/17 08:16:16;;;;;;;;;;;;;;;27.57;30.54;94422.03;2164594;54;20098;-80
2021/08/17 08:18:18;;;;;;;;;;;;;;;27.64;29.97;94424.44;2164882;47;19946;-81
2021/08/17 08:20:20;;;;;;;;;;;;;;;27.78;29.84;94422.78;2163879;39;20061;-81
2021/08/17 08:22:22;;;;;;;;;;;;;;;28.00;29.23;94421.69;2164144;54;19955;-79
2021/08/17 08:24:23;;;;;;;;;;;;;;;28.18;29.53;94416.50;2163903;47;19946;-82
2021/08/17 08:26:25;;;;;;;;;;;;;;;28.32;28.96;94411.28;2164825;39;20733;-81
2021/08/17 08:28:27;;;;;;;;;;;;;;;28.24;29.24;94421.84;2164718;54;19959;-84
2021/08/17 08:30:28;;;;;;;;;;;;;;;28.27;28.69;94413.22;2164237;54;19950;-84
2021/08/17 08:32:30;;;;;;;;;;;;;;;28.26;29.14;94403.53;2164754;54;20066;-83
2021/08/17 08:34:32;;;;;;;;;;;;;;;28.30;29.31;94401.88;2164680;47;20476;-87
2021/08/17 08:36:33;;;;;;;;;;;;;;;28.51;29.06;94405.31;2163021;54;19962;-80
2021/08/17 08:38:35;;;;;;;;;;;;;;;28.67;29.08;94406.81;2163450;54;19953;-82
2021/08/17 08:40:37;;;;;;;;;;;;;;;28.47;29.13;94405.03;2163922;47;20042;-85
2021/08/17 08:42:39;;;;;;;;;;;;;;;28.33;29.39;94402.16;2163642;54;20518;-80
2021/08/17 08:44:41;;;;;;;;;;;;;;;28.23;29.54;94404.88;2163760;54;19950;-81
2021/08/17 08:46:46;;;;;;;;;;;;;;;28.26;29.46;94398.94;2163515;54;20081;-82
2021/08/17 08:48:50;;;;;;;;;;;;;;;28.52;29.54;94393.44;2162154;54;19946;-77
2021/08/17 08:50:51;;;;;;;;;;;;;;;28.71;29.06;94393.59;2162175;47;19998;-81
2021/08/17 08:52:53;;;;;;;;;;;;;;;29.00;28.63;94390.94;2163786;54;20070;-82
2021/08/17 08:54:56;;;;;;;;;;;;;;;29.08;28.66;94395.75;2163515;47;19947;-79
2021/08/17 08:56:57;;;;;;;;;;;;;;;29.06;28.61;94389.00;2163206;47;19947;-83
2021/08/17 08:58:59;;;;;;;;;;;;;;;28.93;28.75;94385.88;2162449;39;20343;-83
2021/08/17 09:01:01;;;;;;;;;;;;;;;28.42;29.77;94383.50;2161849;54;19968;-73
2021/08/17 09:03:03;;;;;;;;;;;;;;;28.59;29.70;94377.78;2162936;54;19946;-80
2021/08/17 09:05:05;;;;;;;;;;;;;;;28.75;29.09;94373.88;2161369;54;19977;-76
2021/08/17 09:07:07;;;;;;;;;;;;;;;29.00;28.65;94375.56;2163055;47;20009;-80
2021/08/17 09:09:13;;;;;;;;;;;;;;;29.29;28.65;94369.41;2163214;54;19951;-68
2021/08/17 09:11:14;;;;;;;;;;;;;;;29.31;28.68;94369.13;2162554;54;20022;-61
2021/08/17 09:13:20;;;;;;;;;;;;;;;29.15;28.14;94365.78;2162294;54;20554;-69
2021/08/17 09:15:23;;;;;;;;;;;;;;;29.02;28.88;94367.22;2161862;31;20419;-69
2021/08/17 09:17:24;;;;;;;;;;;;;;;29.13;29.13;94367.94;2162195;54;20061;-68
2021/08/17 09:19:29;;;;;;;;;;;;;;;29.42;28.24;94367.94;2161825;54;19953;-70
2021/08/17 09:21:31;;;;;;;;;;;;;;;29.60;28.21;94363.72;2162108;54;20097;-68
2021/08/17 09:23:34;;;;;;;;;;;;;;;29.88;27.58;94359.38;2162660;47;19968;-69
2021/08/17 09:25:36;;;;;;;;;;;;;;;30.10;27.52;94361.50;2162601;54;19950;-68
2021/08/17 09:27:37;;;;;;;;;;;;;;;30.23;27.14;94362.69;2163472;39;20045;-71
2021/08/17 09:29:40;;;;;;;;;;;;;;;30.09;27.20;94351.00;2161690;47;20066;-68
2021/08/17 09:31:42;;;;;;;;;;;;;;;30.05;27.41;94358.88;2162907;54;19995;-68
2021/08/17 09:33:44;;;;;;;;;;;;;;;30.16;27.29;94351.47;2162361;50;20061;-62
2021/08/17 09:35:45;;;;;;;;;;;;;;;30.42;26.90;94357.34;2162159;54;19947;-63
2021/08/17 09:38:06;;;;;;;;;;;;;;;30.61;26.35;94351.94;2162123;47;19958;-64
2021/08/17 09:40:07;;;;;;;;;;;;;;;30.58;26.47;94360.59;2161231;54;20030;-64
2021/08/17 09:42:09;;;;;;;;;;;;;;;30.64;26.63;94356.75;2161976;54;20006;-65
2021/08/17 09:44:11;;;;;;;;;;;;;;;30.67;26.07;94344.53;2162302;46;19968;-64
2021/08/17 09:46:13;;;;;;;;;;;;;;;30.29;26.79;94345.34;2162161;54;19955;-63
2021/08/17 09:48:15;;;;;;;;;;;;;;;30.35;26.61;94344.19;2162086;47;20096;-62
2021/08/17 09:50:19;;;;;;;;;;;;;;;30.45;26.71;94342.44;2160891;54;20490;-62
2021/08/17 09:52:21;;;;;;;;;;;;;;;30.65;26.54;94344.81;2162444;39;20086;-62
2021/08/17 09:54:23;;;;;;;;;;;;;;;30.52;26.77;94340.16;2162752;54;20040;-62
2021/08/17 09:56:28;;;;;;;;;;;;;;;30.56;26.58;94350.09;2163338;31;20442;-63
2021/08/17 09:58:31;;;;;;;;;;;;;;;30.77;26.39;94339.75;2163467;54;20452;-65
2021/08/17 10:00:33;;;;;;;;;;;;;;;31.02;26.15;94345.91;2162356;47;19950;-64
2021/08/17 10:02:35;;;;;;;;;;;;;;;31.28;25.71;94337.31;2162302;54;20732;-62
2021/08/17 10:04:38;;;;;;;;;;;;;;;31.17;25.74;94336.69;2162188;54;19953;-62
2021/08/17 10:06:40;;;;;;;;;;;;;;;30.81;26.69;94335.38;2162707;46;20463;-61
2021/08/17 10:08:42;;;;;;;;;;;;;;;30.54;26.63;94338.75;2162134;54;20156;-63
2021/08/17 10:10:44;;;;;;;;;;;;;;;30.50;27.24;94337.75;2161962;54;20050;-63
2021/08/17 10:12:46;;;;;;;;;;;;;;;30.84;26.40;94333.97;2163447;39;20474;-62
2021/08/17 10:14:48;;;;;;;;;;;;;;;31.23;26.33;94327.38;2162191;54;19954;-62
2021/08/17 10:16:50;;;;;;;;;;;;;;;31.55;25.91;94328.47;2162061;54;20514;-62
2021/08/17 10:18:51;;;;;;;;;;;;;;;31.63;25.79;94336.69;2162671;54;19990;-60
2021/08/17 10:20:53;;;;;;;;;;;;;;;31.80;25.87;94322.53;2162172;54;20503;-62
2021/08/17 10:22:55;;;;;;;;;;;;;;;31.85;25.82;94313.50;2162001;54;19958;-66
2021/08/17 10:25:07;;;;;;;;;;;;;;;31.73;25.62;94324.88;2162483;46;19976;-62
2021/08/17 10:27:23;;;;;;;;;;;;;;;31.94;25.31;94321.72;2162640;46;20065;-62
2021/08/17 10:29:27;;;;;;;;;;;;;;;31.86;25.59;94325.13;2162495;54;19958;-62
2021/08/17 10:31:31;;;;;;;;;;;;;;;31.76;25.77;94313.41;2162429;47;20078;-64
2021/08/17 10:33:41;;;;;;;;;;;;;;;31.79;25.66;94317.41;2162383;47;20006;-63
2021/08/17 10:35:48;;;;;;;;;;;;;;;31.61;25.70;94311.03;2161977;54;19970;-62
2021/08/17 10:37:49;;;;;;;;;;;;;;;31.78;25.87;94313.91;2162363;47;19955;-60